Time;durP1;ratioP1;P1;durP2;ratioP2;P2;SDS_P1;SDS_P2;PMS_P1;PMS_P2;Temp;Humidity;BMP_temperature;BMP_pressure;BME280_temperature;BME280_humidity;BME280_pressure;Samples;Min_cycle;Max_cycle;Signal;HPM_P1;HPM_P2
2023/07/23 00:02:23;;;;;;;6.30;2.13;;;19.50;99.90;;;;;;5068125;28;20471;-70
2023/07/23 00:04:49;;;;;;;7.00;2.30;;;19.40;99.90;;;;;;5068515;28;20430;-70
2023/07/23 00:07:14;;;;;;;6.63;1.70;;;19.50;99.90;;;;;;5068362;28;20944;-70
2023/07/23 00:09:40;;;;;;;7.00;2.00;;;19.50;99.90;;;;;;5069035;28;20900;-69
2023/07/23 00:12:05;;;;;;;6.27;1.97;;;19.50;99.90;;;;;;5068291;28;21223;-69
2023/07/23 00:14:31;;;;;;;7.65;2.15;;;19.40;99.90;;;;;;5067922;28;20605;-70
2023/07/23 00:16:56;;;;;;;6.55;2.10;;;19.40;99.90;;;;;;5050392;28;20427;-70
2023/07/23 00:19:23;;;;;;;7.18;2.10;;;19.40;99.90;;;;;;5064925;28;20449;-70
2023/07/23 00:21:49;;;;;;;7.17;2.30;;;19.30;99.90;;;;;;5066610;28;20407;-70
2023/07/23 00:24:16;;;;;;;7.32;1.90;;;19.30;99.90;;;;;;5067525;28;20391;-70
2023/07/23 00:26:41;;;;;;;7.50;2.20;;;19.20;99.90;;;;;;5066643;28;20470;-70
2023/07/23 00:29:07;;;;;;;6.95;2.30;;;19.20;99.90;;;;;;5048079;28;20435;-70
2023/07/23 00:31:33;;;;;;;6.50;1.70;;;19.10;99.90;;;;;;5066269;28;20422;-70
2023/07/23 00:33:58;;;;;;;7.13;2.30;;;19.00;99.90;;;;;;5067136;28;20388;-70
2023/07/23 00:36:24;;;;;;;7.30;2.40;;;18.80;99.90;;;;;;5067593;28;20380;-70
2023/07/23 00:38:49;;;;;;;5.87;1.73;;;18.80;99.90;;;;;;5067060;28;20404;-70
2023/07/23 00:41:15;;;;;;;6.60;1.65;;;18.80;99.90;;;;;;5066609;28;20399;-70
2023/07/23 00:43:41;;;;;;;7.40;1.92;;;18.70;99.90;;;;;;5067225;28;20684;-70
2023/07/23 00:46:08;;;;;;;8.60;2.08;;;18.60;99.90;;;;;;5049919;28;20912;-70
2023/07/23 00:48:33;;;;;;;6.47;1.90;;;18.60;99.90;;;;;;5067882;28;20948;-70
2023/07/23 00:50:59;;;;;;;7.55;2.47;;;18.60;99.90;;;;;;5066571;28;20415;-70
2023/07/23 00:53:25;;;;;;;7.70;2.30;;;18.50;99.90;;;;;;5065540;28;20444;-70
2023/07/23 00:55:52;;;;;;;7.00;2.03;;;18.50;99.90;;;;;;5065966;28;20411;-70
2023/07/23 00:58:18;;;;;;;6.00;1.83;;;18.40;99.90;;;;;;5066267;28;20728;-70
2023/07/23 01:00:44;;;;;;;6.68;2.10;;;18.40;99.90;;;;;;5066430;28;20422;-70
2023/07/23 01:03:09;;;;;;;6.95;2.10;;;18.40;99.90;;;;;;5066458;28;20396;-70
2023/07/23 01:05:36;;;;;;;6.97;1.90;;;18.40;99.90;;;;;;5067295;28;20496;-70
2023/07/23 01:08:03;;;;;;;6.72;1.80;;;18.30;99.90;;;;;;5068221;28;20507;-70
2023/07/23 01:10:31;;;;;;;7.00;2.17;;;18.30;99.90;;;;;;5066352;28;21110;-70
2023/07/23 01:12:57;;;;;;;7.47;2.40;;;18.20;99.90;;;;;;5067654;28;20747;-69
2023/07/23 01:15:23;;;;;;;6.20;1.92;;;18.20;1.00;;;;;;5066203;28;20407;-70
2023/07/23 01:17:51;;;;;;;6.47;2.20;;;18.20;1.00;;;;;;5067637;28;20409;-70
2023/07/23 01:20:17;;;;;;;6.90;2.20;;;18.20;1.00;;;;;;5066046;28;20723;-70
2023/07/23 01:22:42;;;;;;;6.83;2.13;;;18.10;1.00;;;;;;5066896;28;20774;-70
2023/07/23 01:25:08;;;;;;;6.40;2.20;;;18.00;1.00;;;;;;5065796;28;20392;-70
2023/07/23 01:27:33;;;;;;;6.20;1.80;;;17.90;1.00;;;;;;5067320;28;20455;-70
2023/07/23 01:29:59;;;;;;;6.40;2.00;;;17.90;1.00;;;;;;5065798;28;20412;-69
2023/07/23 01:32:25;;;;;;;7.00;2.30;;;17.80;99.90;;;;;;5048531;28;20416;-69
2023/07/23 01:34:51;;;;;;;6.87;2.00;;;17.80;99.90;;;;;;5066203;28;20461;-69
2023/07/23 01:37:17;;;;;;;7.15;2.20;;;17.80;99.90;;;;;;5048558;28;20778;-70
2023/07/23 01:39:43;;;;;;;6.85;2.30;;;17.70;99.90;;;;;;5066488;28;20415;-70
2023/07/23 01:42:13;;;;;;;7.50;2.10;;;17.70;99.90;;;;;;5068707;28;20481;-70
2023/07/23 01:44:39;;;;;;;8.80;2.40;;;17.50;99.90;;;;;;5070380;28;20886;-70
2023/07/23 01:47:04;;;;;;;8.50;2.20;;;17.40;1.00;;;;;;5070713;28;20472;-69
2023/07/23 01:49:30;;;;;;;7.70;2.00;;;17.40;99.90;;;;;;5069367;28;20411;-69
2023/07/23 01:51:55;;;;;;;6.47;2.00;;;17.40;99.90;;;;;;5069531;28;20423;-69
2023/07/23 01:54:21;;;;;;;6.80;2.00;;;17.30;99.90;;;;;;5070008;28;20486;-69
2023/07/23 01:56:47;;;;;;;6.53;2.10;;;17.20;99.90;;;;;;5069391;28;20408;-69
2023/07/23 01:59:13;;;;;;;6.93;2.42;;;17.20;1.00;;;;;;5070174;28;20413;-70
2023/07/23 02:01:39;;;;;;;7.10;1.83;;;17.20;1.00;;;;;;5069370;28;20415;-70
2023/07/23 02:04:04;;;;;;;8.27;2.10;;;17.20;1.00;;;;;;5069923;28;20445;-69
2023/07/23 02:06:30;;;;;;;8.00;1.87;;;17.20;1.00;;;;;;5070207;28;20811;-69
2023/07/23 02:08:55;;;;;;;6.95;2.10;;;17.20;1.00;;;;;;5072324;28;20449;-70
2023/07/23 02:11:21;;;;;;;7.78;2.55;;;17.20;1.00;;;;;;5076292;28;20392;-69
2023/07/23 02:13:47;;;;;;;6.85;2.15;;;17.10;99.90;;;;;;5075693;28;20424;-69
2023/07/23 02:16:20;;;;;;;5.97;1.77;;;17.10;1.00;;;;;;5035256;28;20442;-70
2023/07/23 02:18:46;;;;;;;6.65;1.90;;;17.10;1.00;;;;;;5066652;28;21431;-70
2023/07/23 02:21:11;;;;;;;6.20;1.90;;;17.10;1.00;;;;;;5069627;28;20446;-69
2023/07/23 02:23:37;;;;;;;7.00;2.20;;;17.10;1.00;;;;;;5068529;28;20403;-70
2023/07/23 02:26:02;;;;;;;7.93;2.40;;;17.10;1.00;;;;;;5068647;28;20399;-70
2023/07/23 02:28:28;;;;;;;6.80;2.03;;;17.10;1.00;;;;;;5068982;28;20469;-70
2023/07/23 02:31:00;;;;;;;6.60;2.00;;;17.10;1.00;;;;;;5069176;28;20514;-70
2023/07/23 02:33:26;;;;;;;7.10;2.00;;;17.10;99.90;;;;;;5066392;28;20899;-70
2023/07/23 02:35:51;;;;;;;10.48;2.30;;;17.20;99.90;;;;;;5068422;28;20403;-70
2023/07/23 02:38:17;;;;;;;6.20;2.20;;;17.20;99.90;;;;;;5068944;28;20415;-70
2023/07/23 02:40:42;;;;;;;6.77;1.97;;;17.30;99.90;;;;;;5068361;28;20411;-70
2023/07/23 02:43:12;;;;;;;7.40;2.33;;;17.40;99.90;;;;;;5069478;28;20449;-70
2023/07/23 02:45:39;;;;;;;6.35;1.88;;;17.50;50.90;;;;;;5068968;28;20396;-70
2023/07/23 02:48:05;;;;;;;6.80;2.30;;;17.60;25.00;;;;;;5067828;28;20511;-70
2023/07/23 02:50:31;;;;;;;7.73;2.23;;;17.70;1.00;;;;;;5068125;28;20403;-70
2023/07/23 02:52:56;;;;;;;6.70;2.08;;;17.70;1.00;;;;;;5067713;28;20412;-70
2023/07/23 02:55:24;;;;;;;6.57;2.00;;;17.80;1.00;;;;;;5068800;28;20411;-70
2023/07/23 02:57:53;;;;;;;6.22;1.63;;;17.70;1.00;;;;;;5068547;28;20407;-70
2023/07/23 03:00:19;;;;;;;8.20;1.90;;;17.70;1.00;;;;;;5067789;28;20410;-69
2023/07/23 03:02:48;;;;;;;6.60;1.92;;;17.80;1.00;;;;;;5067128;28;20403;-70
2023/07/23 03:05:13;;;;;;;6.45;2.00;;;17.80;1.00;;;;;;5066698;28;20411;-70
2023/07/23 03:07:39;;;;;;;6.60;1.52;;;17.90;1.00;;;;;;5066717;28;20431;-70
2023/07/23 03:10:05;;;;;;;8.00;2.05;;;17.80;1.00;;;;;;5068246;28;20415;-69
2023/07/23 03:12:33;;;;;;;7.32;2.15;;;17.90;1.00;;;;;;5068411;28;20480;-70
2023/07/23 03:14:59;;;;;;;6.90;1.90;;;17.90;1.00;;;;;;5067879;28;20572;-69
2023/07/23 03:17:25;;;;;;;5.50;1.50;;;17.80;1.00;;;;;;5067677;28;20514;-69
2023/07/23 03:19:51;;;;;;;6.60;1.60;;;17.90;1.00;;;;;;5068880;28;20387;-69
2023/07/23 03:22:17;;;;;;;8.20;1.80;;;17.90;1.00;;;;;;5065855;28;20411;-70
2023/07/23 03:24:42;;;;;;;6.15;1.88;;;17.90;1.00;;;;;;5068067;28;20403;-69
2023/07/23 03:27:08;;;;;;;6.10;1.77;;;18.10;1.00;;;;;;5067927;28;20415;-70
2023/07/23 03:29:33;;;;;;;8.63;1.83;;;18.10;1.00;;;;;;5068192;28;20498;-70
2023/07/23 03:31:59;;;;;;;6.53;2.10;;;18.00;1.00;;;;;;5068363;28;20519;-69
2023/07/23 03:34:24;;;;;;;5.97;1.67;;;18.00;1.00;;;;;;5067717;28;20828;-69
2023/07/23 03:36:51;;;;;;;6.03;1.80;;;17.90;1.00;;;;;;5068137;28;20411;-69
2023/07/23 03:39:18;;;;;;;7.97;1.98;;;17.90;1.00;;;;;;5068053;28;20423;-69
2023/07/23 03:41:47;;;;;;;7.03;2.10;;;17.80;1.00;;;;;;5066964;28;20411;-69
2023/07/23 03:44:13;;;;;;;8.63;2.20;;;17.80;1.00;;;;;;5066585;28;20740;-70
2023/07/23 03:47:04;;;;;;;7.60;2.27;;;17.80;1.00;;;;;;5067138;28;20422;-69
2023/07/23 03:49:29;;;;;;;6.70;2.10;;;17.80;1.00;;;;;;5065399;28;20930;-69
2023/07/23 03:51:55;;;;;;;6.78;1.80;;;17.70;1.00;;;;;;5068082;28;20506;-69
2023/07/23 03:54:20;;;;;;;8.70;2.20;;;17.70;1.00;;;;;;5067033;28;20503;-70
2023/07/23 03:56:46;;;;;;;9.55;2.33;;;17.70;1.00;;;;;;5067365;28;20553;-70
2023/07/23 03:59:11;;;;;;;8.80;2.50;;;17.70;1.00;;;;;;5067368;28;20482;-70
2023/07/23 04:01:37;;;;;;;5.90;1.60;;;17.70;1.00;;;;;;5067660;28;20609;-70
2023/07/23 04:04:02;;;;;;;6.50;2.00;;;17.70;1.00;;;;;;5068172;28;20400;-68
2023/07/23 04:06:28;;;;;;;6.43;1.60;;;17.60;1.00;;;;;;5048657;28;20419;-69
2023/07/23 04:08:53;;;;;;;5.73;1.60;;;17.50;1.00;;;;;;5067607;28;20441;-69
2023/07/23 04:11:19;;;;;;;6.00;1.80;;;17.50;1.00;;;;;;5068072;28;20453;-69
2023/07/23 04:13:44;;;;;;;7.22;1.80;;;17.50;1.00;;;;;;5064897;28;20728;-70
2023/07/23 04:16:10;;;;;;;6.68;2.08;;;17.50;1.00;;;;;;5064762;28;20949;-70
2023/07/23 04:18:53;;;;;;;6.88;1.90;;;17.50;1.00;;;;;;5068903;28;20813;-70
2023/07/23 04:21:21;;;;;;;6.40;1.70;;;17.50;1.00;;;;;;5065540;28;20503;-70
2023/07/23 04:23:51;;;;;;;10.23;2.60;;;17.60;1.00;;;;;;5066501;28;20868;-70
2023/07/23 04:26:18;;;;;;;6.70;2.27;;;17.60;1.00;;;;;;5066328;28;20456;-70
2023/07/23 04:28:44;;;;;;;6.57;1.77;;;17.70;1.00;;;;;;5065866;28;20414;-70
2023/07/23 04:31:10;;;;;;;6.68;1.80;;;17.70;1.00;;;;;;5068001;28;20444;-70
2023/07/23 04:33:36;;;;;;;6.03;1.70;;;17.70;1.00;;;;;;5068894;28;20742;-70
2023/07/23 04:36:03;;;;;;;6.25;2.22;;;17.80;1.00;;;;;;5066693;28;20404;-70
2023/07/23 04:38:28;;;;;;;7.75;2.08;;;17.90;1.00;;;;;;5067383;28;20407;-70
2023/07/23 04:40:54;;;;;;;5.90;1.60;;;17.90;1.00;;;;;;5065185;28;20419;-70
2023/07/23 04:43:19;;;;;;;7.30;2.30;;;18.00;1.00;;;;;;5066377;28;20424;-70
2023/07/23 04:45:45;;;;;;;6.07;1.80;;;18.10;1.00;;;;;;5064529;28;20765;-70
2023/07/23 04:48:12;;;;;;;6.80;1.90;;;18.20;1.00;;;;;;5067745;28;20481;-70
2023/07/23 04:50:38;;;;;;;7.13;2.03;;;18.20;1.00;;;;;;5067341;28;20410;-71
2023/07/23 04:53:03;;;;;;;6.63;1.92;;;18.30;1.00;;;;;;5067961;28;20412;-69
2023/07/23 04:55:29;;;;;;;6.57;2.00;;;18.30;1.00;;;;;;5066588;28;20395;-70
2023/07/23 04:57:55;;;;;;;6.43;2.28;;;18.30;1.00;;;;;;5066568;28;20423;-70
2023/07/23 05:00:21;;;;;;;6.75;2.03;;;18.40;1.00;;;;;;5066438;28;20410;-70
2023/07/23 05:02:47;;;;;;;6.80;1.63;;;18.50;1.00;;;;;;5065236;28;20503;-70
2023/07/23 05:05:12;;;;;;;7.00;2.13;;;19.00;1.00;;;;;;5067630;28;20931;-70
2023/07/23 05:07:39;;;;;;;6.00;1.70;;;20.00;1.00;;;;;;5068730;28;20419;-70
2023/07/23 05:10:05;;;;;;;7.67;1.90;;;21.00;99.90;;;;;;5076142;28;20476;-68
2023/07/23 05:12:30;;;;;;;6.00;1.50;;;21.90;99.90;;;;;;5074420;28;20412;-67
2023/07/23 05:15:12;;;;;;;6.00;1.88;;;22.50;99.90;;;;;;5074405;28;20415;-67
2023/07/23 05:17:38;;;;;;;5.95;1.60;;;22.90;99.90;;;;;;5071250;28;20403;-69
2023/07/23 05:20:07;;;;;;;6.75;1.95;;;23.30;99.90;;;;;;5070917;28;20408;-69
2023/07/23 05:22:33;;;;;;;6.85;1.98;;;23.60;99.90;;;;;;5071235;28;20430;-69
2023/07/23 05:24:59;;;;;;;6.72;2.03;;;24.10;99.90;;;;;;5070373;28;20496;-69
2023/07/23 05:27:26;;;;;;;6.00;1.60;;;24.70;99.90;;;;;;5072282;28;20419;-69
2023/07/23 05:29:51;;;;;;;7.38;1.70;;;25.00;99.90;;;;;;5072543;28;20423;-69
2023/07/23 05:32:17;;;;;;;5.68;1.88;;;25.50;99.90;;;;;;5070401;28;20446;-69
2023/07/23 05:34:42;;;;;;;6.07;1.70;;;26.00;99.90;;;;;;5071164;28;20787;-69
2023/07/23 05:37:08;;;;;;;7.07;2.00;;;26.20;99.90;;;;;;5072234;28;20403;-70
2023/07/23 05:39:34;;;;;;;6.15;1.52;;;26.50;99.90;;;;;;5071480;28;20430;-69
2023/07/23 05:41:59;;;;;;;6.37;1.83;;;27.00;99.90;;;;;;5070247;28;20774;-69
2023/07/23 05:44:25;;;;;;;6.27;1.70;;;27.30;99.90;;;;;;5069788;28;20415;-70
2023/07/23 05:46:51;;;;;;;6.40;2.03;;;27.60;99.90;;;;;;5066959;28;20793;-69
2023/07/23 05:49:16;;;;;;;6.50;2.00;;;27.20;99.90;;;;;;5070455;28;20403;-70
2023/07/23 05:51:42;;;;;;;6.63;1.60;;;27.50;99.90;;;;;;5071205;28;20428;-69
2023/07/23 05:54:07;;;;;;;6.20;1.83;;;28.20;99.90;;;;;;5070585;28;20415;-69
2023/07/23 05:56:33;;;;;;;6.23;1.80;;;27.80;99.90;;;;;;5071091;28;20486;-69
2023/07/23 05:59:00;;;;;;;5.83;1.60;;;27.80;99.90;;;;;;5068349;28;20490;-69
2023/07/23 06:01:25;;;;;;;5.72;1.50;;;27.90;99.90;;;;;;5070569;28;20403;-70
2023/07/23 06:03:51;;;;;;;6.37;1.50;;;28.50;99.90;;;;;;5070371;28;20835;-70
2023/07/23 06:06:16;;;;;;;5.65;1.35;;;28.60;99.90;;;;;;5070116;28;20423;-70
2023/07/23 06:08:42;;;;;;;5.90;1.70;;;28.60;99.90;;;;;;5068829;28;20407;-70
2023/07/23 06:11:07;;;;;;;6.77;2.10;;;28.40;99.90;;;;;;5068566;28;20412;-70
2023/07/23 06:13:33;;;;;;;6.50;1.90;;;27.80;99.90;;;;;;5070549;28;20392;-69
2023/07/23 06:15:58;;;;;;;7.32;2.00;;;27.40;99.90;;;;;;5070075;28;20435;-70
2023/07/23 06:18:24;;;;;;;6.78;1.88;;;27.00;99.90;;;;;;5069467;28;20517;-70
2023/07/23 06:20:49;;;;;;;6.73;1.80;;;26.60;99.90;;;;;;5069546;28;20416;-70
2023/07/23 06:23:15;;;;;;;6.90;1.90;;;25.80;99.90;;;;;;5069785;28;20399;-70
2023/07/23 06:25:40;;;;;;;8.20;1.93;;;25.30;99.90;;;;;;5070657;28;20402;-70
2023/07/23 06:28:06;;;;;;;6.23;1.80;;;24.90;99.90;;;;;;5068407;28;20481;-69
2023/07/23 06:30:33;;;;;;;6.10;1.70;;;24.60;99.90;;;;;;5071272;28;20445;-69
2023/07/23 06:32:58;;;;;;;6.60;1.50;;;24.80;99.90;;;;;;5069673;28;20482;-69
2023/07/23 06:35:24;;;;;;;6.53;2.00;;;24.80;99.90;;;;;;5068885;28;21049;-70
2023/07/23 06:37:50;;;;;;;7.00;2.20;;;25.60;99.90;;;;;;5068579;28;20415;-69
2023/07/23 06:40:15;;;;;;;7.20;1.80;;;26.40;99.90;;;;;;5070213;28;20935;-70
2023/07/23 06:42:41;;;;;;;6.50;1.70;;;27.30;99.90;;;;;;5069847;28;20422;-69
2023/07/23 06:45:09;;;;;;;5.90;1.33;;;27.80;99.90;;;;;;5069423;28;20403;-71
2023/07/23 06:47:35;;;;;;;5.33;1.43;;;28.10;99.90;;;;;;5070351;28;20844;-70
2023/07/23 06:50:00;;;;;;;7.80;2.00;;;28.00;99.90;;;;;;5070005;28;20404;-70
2023/07/23 06:52:26;;;;;;;6.87;1.70;;;28.50;99.90;;;;;;5069998;28;20404;-70
2023/07/23 06:54:52;;;;;;;6.93;1.50;;;28.60;99.90;;;;;;5066269;28;20493;-70
2023/07/23 06:57:17;;;;;;;6.40;1.60;;;29.30;99.90;;;;;;5063835;28;20395;-70
2023/07/23 06:59:45;;;;;;;6.05;1.42;;;29.60;99.90;;;;;;5067438;28;20515;-71
2023/07/23 07:02:11;;;;;;;6.63;1.60;;;29.10;99.90;;;;;;5051458;28;20416;-70
2023/07/23 07:04:37;;;;;;;6.57;2.05;;;29.00;99.90;;;;;;5069600;28;20487;-70
2023/07/23 07:07:03;;;;;;;5.50;1.70;;;29.30;99.90;;;;;;5070377;28;20511;-70
2023/07/23 07:09:28;;;;;;;5.87;1.90;;;29.30;99.90;;;;;;5070299;28;20453;-70
2023/07/23 07:11:54;;;;;;;6.27;1.90;;;29.20;99.90;;;;;;5069143;28;20412;-70
2023/07/23 07:14:20;;;;;;;8.00;1.48;;;29.00;99.90;;;;;;5065609;28;20478;-70
2023/07/23 07:16:45;;;;;;;6.60;1.40;;;28.90;99.90;;;;;;5064968;28;20415;-70
2023/07/23 07:19:11;;;;;;;6.80;2.25;;;30.00;99.90;;;;;;5066978;28;20435;-71
2023/07/23 07:21:36;;;;;;;6.30;1.80;;;30.10;99.90;;;;;;5050188;28;20411;-71
2023/07/23 07:24:06;;;;;;;6.70;2.10;;;30.60;99.90;;;;;;5069370;28;20453;-70
2023/07/23 07:26:31;;;;;;;6.40;1.57;;;30.80;99.90;;;;;;5068690;28;20411;-71
2023/07/23 07:28:57;;;;;;;6.33;1.87;;;31.40;99.90;;;;;;5049781;28;20422;-71
2023/07/23 07:31:22;;;;;;;6.15;1.60;;;31.60;99.90;;;;;;5069482;28;20479;-71
2023/07/23 07:33:48;;;;;;;5.40;1.40;;;31.70;99.90;;;;;;5068353;28;20486;-71
2023/07/23 07:36:14;;;;;;;6.70;1.63;;;31.90;99.90;;;;;;5068671;28;20398;-71
2023/07/23 07:38:39;;;;;;;6.43;1.60;;;32.00;99.90;;;;;;5067682;28;20425;-71
2023/07/23 07:41:05;;;;;;;6.70;2.20;;;31.70;99.90;;;;;;5069347;28;20440;-72
2023/07/23 07:43:31;;;;;;;5.50;1.40;;;30.30;99.90;;;;;;5068576;28;20399;-71
2023/07/23 07:46:00;;;;;;;6.20;1.60;;;29.80;99.90;;;;;;5068594;28;20387;-71
2023/07/23 07:48:30;;;;;;;5.53;1.13;;;30.30;99.90;;;;;;5064781;28;20506;-70
2023/07/23 07:51:04;;;;;;;7.00;1.80;;;29.70;99.90;;;;;;5070024;28;20838;-69
2023/07/23 07:53:30;;;;;;;6.40;1.55;;;29.30;99.90;;;;;;5067804;28;20387;-70
2023/07/23 07:55:57;;;;;;;6.20;1.70;;;29.80;99.90;;;;;;5069192;28;20383;-70
2023/07/23 07:58:30;;;;;;;6.43;1.40;;;30.00;99.90;;;;;;5068357;28;20415;-70
2023/07/23 08:01:00;;;;;;;5.80;1.83;;;29.70;99.90;;;;;;5068968;28;20485;-71
2023/07/23 08:03:27;;;;;;;5.40;1.60;;;28.90;99.90;;;;;;5068682;28;20475;-71
2023/07/23 08:05:55;;;;;;;7.50;1.90;;;29.20;99.90;;;;;;5068667;28;20839;-70
2023/07/23 08:08:25;;;;;;;5.75;1.30;;;29.30;99.90;;;;;;5068481;28;20407;-70
2023/07/23 08:10:53;;;;;;;7.57;1.70;;;29.80;99.90;;;;;;5068742;28;20815;-70
2023/07/23 08:13:19;;;;;;;5.00;1.10;;;28.90;99.90;;;;;;5069156;28;20686;-70
2023/07/23 08:15:46;;;;;;;6.10;1.40;;;29.30;99.90;;;;;;5069347;28;20771;-75
2023/07/23 08:18:11;;;;;;;6.20;1.60;;;29.40;99.90;;;;;;5064039;28;20431;-75
2023/07/23 08:20:37;;;;;;;5.50;1.33;;;29.60;99.90;;;;;;5066315;28;20959;-76
2023/07/23 08:23:04;;;;;;;6.10;1.60;;;29.20;99.90;;;;;;5065724;28;20764;-75
2023/07/23 08:25:30;;;;;;;6.18;1.50;;;28.80;99.90;;;;;;5068831;28;20885;-76
2023/07/23 08:28:01;;;;;;;7.03;1.80;;;28.10;99.90;;;;;;5067639;28;20430;-76
2023/07/23 08:30:30;;;;;;;5.85;1.40;;;28.30;99.90;;;;;;5065336;28;20993;-76
2023/07/23 08:32:58;;;;;;;7.25;1.80;;;28.30;99.90;;;;;;5067841;28;20536;-76
2023/07/23 08:35:24;;;;;;;5.70;1.60;;;27.90;99.90;;;;;;5068015;28;20399;-75
2023/07/23 08:37:51;;;;;;;6.68;1.80;;;27.70;99.90;;;;;;5063767;28;20482;-76
2023/07/23 08:40:18;;;;;;;6.37;1.10;;;28.00;99.90;;;;;;5062349;28;20384;-76
2023/07/23 08:42:55;;;;;;;5.65;1.48;;;27.90;99.90;;;;;;5061689;28;20418;-75
2023/07/23 08:45:30;;;;;;;6.13;1.75;;;27.60;99.90;;;;;;5057781;28;20422;-75
2023/07/23 08:48:16;;;;;;;5.72;1.60;;;27.10;99.90;;;;;;5056011;28;20432;-75
2023/07/23 08:50:49;;;;;;;5.33;1.40;;;27.50;99.90;;;;;;5066177;28;20413;-76
2023/07/23 08:53:16;;;;;;;5.40;1.40;;;27.50;99.90;;;;;;5064932;28;20509;-76
2023/07/23 08:55:44;;;;;;;5.72;1.40;;;27.30;99.90;;;;;;5055506;28;20416;-77
2023/07/23 08:58:15;;;;;;;6.97;1.50;;;27.80;99.90;;;;;;5055348;28;20411;-77
2023/07/23 09:00:45;;;;;;;5.40;1.40;;;28.00;99.90;;;;;;5062773;28;20550;-76
2023/07/23 09:03:14;;;;;;;5.27;1.17;;;28.10;99.90;;;;;;5065574;28;20403;-76
2023/07/23 09:05:40;;;;;;;5.73;1.10;;;28.60;99.90;;;;;;5065808;28;20433;-76
2023/07/23 09:08:06;;;;;;;5.10;0.80;;;28.20;99.90;;;;;;5064102;28;20427;-74
2023/07/23 09:10:32;;;;;;;5.60;1.20;;;28.10;99.90;;;;;;5066476;28;20404;-75
2023/07/23 09:12:57;;;;;;;5.77;1.10;;;28.20;99.90;;;;;;5063848;28;20415;-75
2023/07/23 09:15:23;;;;;;;5.00;0.70;;;28.40;99.90;;;;;;5065257;28;20445;-76
2023/07/23 09:17:49;;;;;;;5.25;1.10;;;28.30;99.90;;;;;;5056737;28;20420;-76
2023/07/23 09:20:18;;;;;;;5.90;1.10;;;28.00;99.90;;;;;;5061035;28;20409;-75
2023/07/23 09:22:43;;;;;;;4.80;0.80;;;28.10;99.90;;;;;;5071691;28;20403;-75
2023/07/23 09:25:09;;;;;;;5.10;1.00;;;27.40;99.90;;;;;;5061451;28;20487;-75
2023/07/23 09:27:44;;;;;;;5.60;1.05;;;27.00;99.90;;;;;;5062531;28;20866;-75
2023/07/23 09:30:18;;;;;;;6.50;1.40;;;27.10;99.90;;;;;;5059999;28;20377;-75
2023/07/23 09:32:54;;;;;;;5.60;1.10;;;27.40;99.90;;;;;;5060093;28;20803;-75
2023/07/23 09:35:22;;;;;;;5.30;1.20;;;27.20;99.90;;;;;;5059818;28;20393;-75
2023/07/23 09:37:55;;;;;;;5.18;1.20;;;27.60;99.90;;;;;;5062857;28;20991;-75
2023/07/23 09:40:20;;;;;;;5.50;1.20;;;27.60;99.90;;;;;;5055338;28;20884;-75
2023/07/23 09:42:46;;;;;;;5.50;1.20;;;27.90;99.90;;;;;;5062922;28;20477;-75
2023/07/23 09:45:12;;;;;;;5.28;1.08;;;27.90;99.90;;;;;;5051830;28;20815;-75
2023/07/23 09:47:38;;;;;;;5.20;1.10;;;28.00;99.90;;;;;;5064158;28;20459;-75
2023/07/23 09:50:05;;;;;;;5.90;1.60;;;28.40;99.90;;;;;;5039209;28;20451;-74
2023/07/23 09:52:37;;;;;;;5.10;0.82;;;28.60;99.90;;;;;;5051696;28;20409;-75
2023/07/23 09:55:03;;;;;;;5.10;0.90;;;28.50;99.90;;;;;;5053332;28;20393;-75
2023/07/23 09:57:31;;;;;;;8.18;1.40;;;28.90;99.90;;;;;;5067406;28;20396;-75
2023/07/23 09:59:59;;;;;;;6.50;1.30;;;29.20;99.90;;;;;;5064469;28;20845;-75
2023/07/23 10:02:26;;;;;;;6.03;1.10;;;30.50;99.90;;;;;;5059372;28;20412;-75
2023/07/23 10:04:54;;;;;;;6.65;1.35;;;29.90;99.90;;;;;;5065583;28;20486;-76
2023/07/23 10:07:20;;;;;;;5.50;1.10;;;29.80;99.90;;;;;;5053744;28;20417;-76
2023/07/23 10:09:48;;;;;;;6.20;1.75;;;29.40;99.90;;;;;;5056148;28;20594;-75
2023/07/23 10:12:13;;;;;;;5.40;0.95;;;29.60;99.90;;;;;;5056158;28;20460;-75
2023/07/23 10:14:39;;;;;;;4.90;0.90;;;29.20;99.90;;;;;;5064247;28;20490;-76
2023/07/23 10:17:06;;;;;;;5.30;1.30;;;29.00;99.90;;;;;;5048550;28;20429;-75
2023/07/23 10:19:32;;;;;;;4.93;0.90;;;29.30;99.90;;;;;;5060014;28;20414;-75
2023/07/23 10:21:59;;;;;;;6.50;1.40;;;29.50;99.90;;;;;;5068730;28;20404;-76
2023/07/23 10:24:37;;;;;;;5.53;1.30;;;30.50;99.90;;;;;;5065669;28;20425;-75
2023/07/23 10:27:14;;;;;;;5.40;1.20;;;31.30;99.90;;;;;;5070228;28;20420;-74
2023/07/23 10:29:40;;;;;;;5.88;1.50;;;31.30;99.90;;;;;;5069321;28;20442;-76
2023/07/23 10:32:26;;;;;;;7.40;1.90;;;30.90;99.90;;;;;;5069275;28;20395;-75
2023/07/23 10:34:54;;;;;;;5.77;1.27;;;30.50;99.90;;;;;;5069632;28;20418;-76
2023/07/23 10:37:21;;;;;;;5.68;1.33;;;29.90;99.90;;;;;;5069896;28;20476;-76
2023/07/23 10:39:49;;;;;;;6.57;1.50;;;30.30;99.90;;;;;;5067817;28;20400;-76
2023/07/23 10:42:37;;;;;;;6.00;1.90;;;30.90;99.90;;;;;;5070731;28;20408;-76
2023/07/23 10:45:20;;;;;;;6.03;1.40;;;30.60;99.90;;;;;;5069851;28;20977;-77
2023/07/23 10:48:00;;;;;;;5.63;1.40;;;30.90;99.90;;;;;;5068060;28;20423;-76
2023/07/23 10:50:31;;;;;;;6.17;1.73;;;31.10;99.90;;;;;;5069809;28;20420;-76
2023/07/23 10:53:05;;;;;;;5.80;1.70;;;30.90;99.90;;;;;;5070594;28;20437;-76
2023/07/23 10:55:50;;;;;;;9.10;1.67;;;30.90;99.90;;;;;;5051881;28;20972;-75
2023/07/23 10:58:21;;;;;;;5.70;1.50;;;30.40;99.90;;;;;;5070422;28;20395;-76
2023/07/23 11:00:51;;;;;;;9.17;1.73;;;30.70;99.90;;;;;;5069473;28;20406;-76
2023/07/23 11:03:20;;;;;;;5.65;1.40;;;30.30;99.90;;;;;;5071749;28;20391;-75
2023/07/23 11:05:46;;;;;;;6.15;1.40;;;31.00;99.90;;;;;;5052966;28;20545;-75
2023/07/23 11:08:15;;;;;;;5.37;1.10;;;30.70;99.90;;;;;;5072034;28;20498;-76
2023/07/23 11:10:57;;;;;;;6.05;1.65;;;30.40;99.90;;;;;;5071671;28;20387;-76
2023/07/23 11:13:25;;;;;;;6.45;1.60;;;29.20;99.90;;;;;;5069664;28;20435;-76
2023/07/23 11:15:51;;;;;;;5.20;1.30;;;29.10;99.90;;;;;;5069398;28;20975;-75
2023/07/23 11:18:18;;;;;;;6.40;1.60;;;29.40;99.90;;;;;;5070879;28;20423;-75
2023/07/23 11:20:49;;;;;;;6.50;1.80;;;29.90;99.90;;;;;;5069746;28;20409;-76
2023/07/23 11:23:16;;;;;;;6.70;1.60;;;30.30;99.90;;;;;;5052286;28;20478;-76
2023/07/23 11:25:44;;;;;;;5.90;1.20;;;30.60;99.90;;;;;;5069701;28;20384;-76
2023/07/23 11:28:10;;;;;;;7.30;1.87;;;30.50;99.90;;;;;;5069264;28;20416;-76
2023/07/23 11:30:36;;;;;;;5.85;1.58;;;30.80;99.90;;;;;;5061577;28;20477;-76
2023/07/23 11:33:03;;;;;;;6.30;1.20;;;30.70;99.90;;;;;;5067693;28;20462;-76
2023/07/23 11:35:30;;;;;;;7.93;1.70;;;30.00;99.90;;;;;;5067119;28;20379;-75
2023/07/23 11:38:03;;;;;;;5.95;1.30;;;30.20;99.90;;;;;;5070978;28;20419;-74
2023/07/23 11:40:29;;;;;;;5.90;1.40;;;30.50;99.90;;;;;;5069062;28;20887;-75
2023/07/23 11:42:54;;;;;;;6.50;1.23;;;30.60;99.90;;;;;;5063732;28;20404;-74
2023/07/23 11:45:21;;;;;;;8.63;1.87;;;31.00;99.90;;;;;;5058523;28;20504;-75
2023/07/23 11:47:48;;;;;;;5.40;1.65;;;30.50;99.90;;;;;;5049544;28;20417;-77
2023/07/23 11:50:15;;;;;;;5.15;1.00;;;30.40;99.90;;;;;;5049536;28;20398;-77
2023/07/23 11:52:40;;;;;;;5.40;1.20;;;30.20;99.90;;;;;;5049385;28;20382;-76
2023/07/23 11:55:17;;;;;;;6.03;1.73;;;30.40;99.90;;;;;;5050043;28;20476;-74
2023/07/23 11:57:43;;;;;;;6.00;1.40;;;30.60;99.90;;;;;;5064887;28;20395;-75
2023/07/23 12:00:09;;;;;;;6.70;1.43;;;30.10;99.90;;;;;;5068778;28;20935;-75
2023/07/23 12:02:35;;;;;;;6.00;1.92;;;30.30;99.90;;;;;;5069115;28;20391;-75
2023/07/23 12:05:00;;;;;;;6.50;1.90;;;30.80;99.90;;;;;;5068365;28;20388;-76
2023/07/23 12:07:28;;;;;;;6.23;1.80;;;30.80;99.90;;;;;;5068785;28;20712;-76
2023/07/23 12:09:54;;;;;;;6.32;1.70;;;31.00;99.90;;;;;;5068433;28;20474;-74
2023/07/23 12:12:22;;;;;;;5.53;1.00;;;30.40;99.90;;;;;;5068490;28;20803;-73
2023/07/23 12:15:01;;;;;;;5.55;1.40;;;30.40;99.90;;;;;;5063531;28;20435;-75
2023/07/23 12:17:27;;;;;;;6.10;1.92;;;30.20;99.90;;;;;;5066999;28;20420;-74
2023/07/23 12:19:52;;;;;;;6.50;1.30;;;29.70;99.90;;;;;;5068551;28;20392;-75
2023/07/23 12:22:18;;;;;;;6.93;1.92;;;29.30;99.90;;;;;;5065943;28;20886;-74
2023/07/23 12:24:43;;;;;;;13.75;1.67;;;28.80;99.90;;;;;;5067931;28;20410;-75
2023/07/23 12:27:09;;;;;;;6.38;1.77;;;28.40;99.90;;;;;;5049062;28;20445;-75
2023/07/23 12:29:41;;;;;;;6.40;1.50;;;28.00;99.90;;;;;;5068566;28;20392;-77
2023/07/23 12:32:12;;;;;;;6.25;2.10;;;27.90;99.90;;;;;;5056261;28;20922;-76
2023/07/23 12:34:43;;;;;;;7.30;2.17;;;27.80;99.90;;;;;;5048362;28;20837;-76
2023/07/23 12:37:09;;;;;;;5.70;1.40;;;27.80;99.90;;;;;;5064310;28;20461;-78
2023/07/23 12:39:35;;;;;;;6.40;1.60;;;27.70;99.90;;;;;;5058814;28;20868;-77
2023/07/23 12:42:00;;;;;;;6.20;1.90;;;27.80;99.90;;;;;;5052616;28;20733;-78
2023/07/23 12:44:26;;;;;;;6.20;1.60;;;27.80;99.90;;;;;;5053324;28;20399;-77
2023/07/23 12:46:52;;;;;;;6.53;1.80;;;27.70;99.90;;;;;;5064684;28;20484;-77
2023/07/23 12:49:18;;;;;;;7.78;2.15;;;27.90;99.90;;;;;;5048282;28;20540;-76
2023/07/23 12:51:43;;;;;;;6.15;1.40;;;27.80;99.90;;;;;;5048142;28;20495;-77